sensor_id;sensor_type;location;lat;lon;timestamp;temperature;humidity
33460;DHT22;19795;53.160;6.612;2022-07-10T03:52:53;13.90;99.90
33460;DHT22;19795;53.160;6.612;2022-07-10T03:55:19;14.00;99.90
33460;DHT22;19795;53.160;6.612;2022-07-10T04:00:10;14.00;99.90
33460;DHT22;19795;53.160;6.612;2022-07-10T04:02:36;14.10;99.90
33460;DHT22;19795;53.160;6.612;2022-07-10T04:05:05;14.20;99.90
33460;DHT22;19795;53.160;6.612;2022-07-10T04:07:31;14.20;99.90
33460;DHT22;19795;53.160;6.612;2022-07-10T04:09:57;14.20;99.90
33460;DHT22;19795;53.160;6.612;2022-07-10T04:12:22;14.30;99.90
33460;DHT22;19795;53.160;6.612;2022-07-10T04:14:48;14.30;99.90
33460;DHT22;19795;53.160;6.612;2022-07-10T04:17:17;14.30;99.90
33460;DHT22;19795;53.160;6.612;2022-07-10T04:19:42;14.30;99.90
33460;DHT22;19795;53.160;6.612;2022-07-10T04:22:08;14.40;99.90
33460;DHT22;19795;53.160;6.612;2022-07-10T04:24:34;14.40;99.90
33460;DHT22;19795;53.160;6.612;2022-07-10T04:27:00;14.50;99.90
33460;DHT22;19795;53.160;6.612;2022-07-10T04:29:26;14.50;99.90
33460;DHT22;19795;53.160;6.612;2022-07-10T04:31:52;14.50;99.90
33460;DHT22;19795;53.160;6.612;2022-07-10T04:34:17;14.60;99.90
33460;DHT22;19795;53.160;6.612;2022-07-10T04:36:43;14.60;99.90
33460;DHT22;19795;53.160;6.612;2022-07-10T04:39:09;14.70;99.90
33460;DHT22;19795;53.160;6.612;2022-07-10T04:41:34;14.70;99.90
33460;DHT22;19795;53.160;6.612;2022-07-10T04:44:00;14.70;99.90
33460;DHT22;19795;53.160;6.612;2022-07-10T04:46:26;14.80;99.90
33460;DHT22;19795;53.160;6.612;2022-07-10T04:48:52;14.80;99.90
33460;DHT22;19795;53.160;6.612;2022-07-10T04:51:18;14.80;99.90
33460;DHT22;19795;53.160;6.612;2022-07-10T04:53:43;14.90;99.90
33460;DHT22;19795;53.160;6.612;2022-07-10T04:56:09;14.90;99.90
33460;DHT22;19795;53.160;6.612;2022-07-10T04:58:35;15.00;99.90
33460;DHT22;19795;53.160;6.612;2022-07-10T05:01:01;15.00;99.90
33460;DHT22;19795;53.160;6.612;2022-07-10T05:03:28;15.20;99.90
33460;DHT22;19795;53.160;6.612;2022-07-10T05:05:54;15.20;99.90
33460;DHT22;19795;53.160;6.612;2022-07-10T05:08:19;15.30;99.90
33460;DHT22;19795;53.160;6.612;2022-07-10T05:10:45;15.30;99.90
33460;DHT22;19795;53.160;6.612;2022-07-10T05:13:11;15.40;99.90
33460;DHT22;19795;53.160;6.612;2022-07-10T05:15:37;15.40;99.90
33460;DHT22;19795;53.160;6.612;2022-07-10T05:18:03;15.50;99.90
33460;DHT22;19795;53.160;6.612;2022-07-10T05:20:30;15.50;99.90
33460;DHT22;19795;53.160;6.612;2022-07-10T05:22:55;15.50;99.90
33460;DHT22;19795;53.160;6.612;2022-07-10T05:25:21;15.50;99.90
33460;DHT22;19795;53.160;6.612;2022-07-10T05:27:48;15.50;99.90
33460;DHT22;19795;53.160;6.612;2022-07-10T05:30:13;15.50;99.90
33460;DHT22;19795;53.160;6.612;2022-07-10T05:32:43;15.40;99.90
33460;DHT22;19795;53.160;6.612;2022-07-10T05:35:10;15.50;99.90
33460;DHT22;19795;53.160;6.612;2022-07-10T05:37:35;15.50;99.90
33460;DHT22;19795;53.160;6.612;2022-07-10T05:40:01;15.50;99.90
33460;DHT22;19795;53.160;6.612;2022-07-10T05:42:27;15.50;99.90
33460;DHT22;19795;53.160;6.612;2022-07-10T05:44:52;15.60;99.90
33460;DHT22;19795;53.160;6.612;2022-07-10T05:47:18;15.70;99.90
33460;DHT22;19795;53.160;6.612;2022-07-10T05:49:43;15.90;99.90
33460;DHT22;19795;53.160;6.612;2022-07-10T05:52:09;16.00;99.90
33460;DHT22;19795;53.160;6.612;2022-07-10T05:54:35;16.00;99.90
33460;DHT22;19795;53.160;6.612;2022-07-10T05:57:00;15.90;99.90
33460;DHT22;19795;53.160;6.612;2022-07-10T05:59:26;15.90;99.90
33460;DHT22;19795;53.160;6.612;2022-07-10T06:01:51;15.80;99.90
33460;DHT22;19795;53.160;6.612;2022-07-10T06:04:17;15.80;99.90
33460;DHT22;19795;53.160;6.612;2022-07-10T06:06:43;15.70;99.90
33460;DHT22;19795;53.160;6.612;2022-07-10T06:09:08;15.70;99.90
33460;DHT22;19795;53.160;6.612;2022-07-10T06:11:34;15.70;99.90
33460;DHT22;19795;53.160;6.612;2022-07-10T06:14:00;15.50;99.90
33460;DHT22;19795;53.160;6.612;2022-07-10T06:16:26;15.40;99.90
33460;DHT22;19795;53.160;6.612;2022-07-10T06:18:51;15.40;99.90
33460;DHT22;19795;53.160;6.612;2022-07-10T06:21:17;15.40;99.90
33460;DHT22;19795;53.160;6.612;2022-07-10T06:23:47;15.30;99.90
33460;DHT22;19795;53.160;6.612;2022-07-10T06:26:13;15.20;99.90
33460;DHT22;19795;53.160;6.612;2022-07-10T06:28:38;15.30;99.90
33460;DHT22;19795;53.160;6.612;2022-07-10T06:31:07;15.50;99.90
33460;DHT22;19795;53.160;6.612;2022-07-10T06:33:32;15.80;99.90
33460;DHT22;19795;53.160;6.612;2022-07-10T06:36:00;15.90;99.90
33460;DHT22;19795;53.160;6.612;2022-07-10T06:38:26;16.10;99.90
33460;DHT22;19795;53.160;6.612;2022-07-10T06:40:52;16.00;99.90
33460;DHT22;19795;53.160;6.612;2022-07-10T06:43:18;16.00;99.90
33460;DHT22;19795;53.160;6.612;2022-07-10T06:45:44;15.50;99.90
33460;DHT22;19795;53.160;6.612;2022-07-10T06:48:10;15.20;99.90
33460;DHT22;19795;53.160;6.612;2022-07-10T06:50:36;14.90;99.90
33460;DHT22;19795;53.160;6.612;2022-07-10T06:53:03;14.80;99.90
33460;DHT22;19795;53.160;6.612;2022-07-10T06:55:29;14.80;99.90
33460;DHT22;19795;53.160;6.612;2022-07-10T06:57:56;14.80;99.90
33460;DHT22;19795;53.160;6.612;2022-07-10T07:00:22;14.80;99.90
33460;DHT22;19795;53.160;6.612;2022-07-10T07:02:48;14.80;99.90
33460;DHT22;19795;53.160;6.612;2022-07-10T07:05:14;14.90;99.90
33460;DHT22;19795;53.160;6.612;2022-07-10T07:07:40;15.10;99.90
33460;DHT22;19795;53.160;6.612;2022-07-10T07:10:06;15.20;99.90
33460;DHT22;19795;53.160;6.612;2022-07-10T07:12:32;15.40;99.90
33460;DHT22;19795;53.160;6.612;2022-07-10T07:14:58;15.60;99.90
33460;DHT22;19795;53.160;6.612;2022-07-10T07:17:23;15.80;99.90
33460;DHT22;19795;53.160;6.612;2022-07-10T07:19:51;15.90;99.90
33460;DHT22;19795;53.160;6.612;2022-07-10T07:22:36;15.90;99.90
33460;DHT22;19795;53.160;6.612;2022-07-10T07:25:20;15.90;99.90
33460;DHT22;19795;53.160;6.612;2022-07-10T07:27:46;15.80;99.90
33460;DHT22;19795;53.160;6.612;2022-07-10T07:30:14;15.60;99.90
33460;DHT22;19795;53.160;6.612;2022-07-10T07:32:41;15.60;99.90
33460;DHT22;19795;53.160;6.612;2022-07-10T07:35:08;15.30;99.90
33460;DHT22;19795;53.160;6.612;2022-07-10T07:37:42;15.20;99.90
33460;DHT22;19795;53.160;6.612;2022-07-10T07:40:10;15.20;99.90
33460;DHT22;19795;53.160;6.612;2022-07-10T07:42:36;15.20;99.90
33460;DHT22;19795;53.160;6.612;2022-07-10T07:45:02;15.10;99.90
33460;DHT22;19795;53.160;6.612;2022-07-10T07:47:29;15.20;99.90
33460;DHT22;19795;53.160;6.612;2022-07-10T07:49:55;15.20;99.90
33460;DHT22;19795;53.160;6.612;2022-07-10T07:52:20;15.30;99.90
33460;DHT22;19795;53.160;6.612;2022-07-10T07:54:48;15.30;99.90
33460;DHT22;19795;53.160;6.612;2022-07-10T07:57:14;15.40;99.90
33460;DHT22;19795;53.160;6.612;2022-07-10T07:59:39;15.50;99.90
33460;DHT22;19795;53.160;6.612;2022-07-10T08:02:05;15.70;99.90
33460;DHT22;19795;53.160;6.612;2022-07-10T08:04:31;15.70;99.90
33460;DHT22;19795;53.160;6.612;2022-07-10T08:06:57;15.80;99.90
33460;DHT22;19795;53.160;6.612;2022-07-10T08:09:22;15.80;99.90
33460;DHT22;19795;53.160;6.612;2022-07-10T08:11:48;15.80;99.90
33460;DHT22;19795;53.160;6.612;2022-07-10T08:14:14;15.80;99.90
33460;DHT22;19795;53.160;6.612;2022-07-10T08:16:40;15.90;99.90
33460;DHT22;19795;53.160;6.612;2022-07-10T08:19:06;15.80;99.90
33460;DHT22;19795;53.160;6.612;2022-07-10T08:21:31;15.80;99.90
33460;DHT22;19795;53.160;6.612;2022-07-10T08:23:57;15.90;99.90
33460;DHT22;19795;53.160;6.612;2022-07-10T08:26:24;15.80;99.90
33460;DHT22;19795;53.160;6.612;2022-07-10T08:28:49;15.70;99.90
33460;DHT22;19795;53.160;6.612;2022-07-10T08:31:15;15.60;99.90
33460;DHT22;19795;53.160;6.612;2022-07-10T08:33:41;15.70;99.90
33460;DHT22;19795;53.160;6.612;2022-07-10T08:36:07;15.90;99.90
33460;DHT22;19795;53.160;6.612;2022-07-10T08:38:33;16.20;99.90
33460;DHT22;19795;53.160;6.612;2022-07-10T08:40:59;16.30;99.90
33460;DHT22;19795;53.160;6.612;2022-07-10T08:43:28;16.50;99.90
33460;DHT22;19795;53.160;6.612;2022-07-10T08:45:54;16.60;99.90
33460;DHT22;19795;53.160;6.612;2022-07-10T08:48:23;16.60;99.90
33460;DHT22;19795;53.160;6.612;2022-07-10T08:50:52;16.70;99.90
33460;DHT22;19795;53.160;6.612;2022-07-10T08:53:32;16.70;99.90
33460;DHT22;19795;53.160;6.612;2022-07-10T08:55:58;16.80;99.90
33460;DHT22;19795;53.160;6.612;2022-07-10T08:58:24;17.10;99.90
33460;DHT22;19795;53.160;6.612;2022-07-10T09:00:51;17.10;99.90
33460;DHT22;19795;53.160;6.612;2022-07-10T09:03:17;17.10;99.90
33460;DHT22;19795;53.160;6.612;2022-07-10T09:05:42;17.00;99.90
33460;DHT22;19795;53.160;6.612;2022-07-10T09:08:25;17.00;99.90
33460;DHT22;19795;53.160;6.612;2022-07-10T09:11:17;17.00;99.90
33460;DHT22;19795;53.160;6.612;2022-07-10T09:13:52;17.00;99.90
33460;DHT22;19795;53.160;6.612;2022-07-10T09:16:35;16.90;99.90
33460;DHT22;19795;53.160;6.612;2022-07-10T09:21:50;17.40;99.90
33460;DHT22;19795;53.160;6.612;2022-07-10T09:24:19;17.30;99.90
33460;DHT22;19795;53.160;6.612;2022-07-10T09:27:03;17.00;99.90
33460;DHT22;19795;53.160;6.612;2022-07-10T09:29:30;17.00;99.90
33460;DHT22;19795;53.160;6.612;2022-07-10T09:32:01;17.00;99.90
33460;DHT22;19795;53.160;6.612;2022-07-10T09:34:46;17.00;99.90
33460;DHT22;19795;53.160;6.612;2022-07-10T09:37:26;17.20;99.90
33460;DHT22;19795;53.160;6.612;2022-07-10T09:39:59;17.10;99.90
33460;DHT22;19795;53.160;6.612;2022-07-10T09:45:13;16.60;99.90
33460;DHT22;19795;53.160;6.612;2022-07-10T09:47:57;16.00;99.90
33460;DHT22;19795;53.160;6.612;2022-07-10T09:50:34;15.90;99.90
33460;DHT22;19795;53.160;6.612;2022-07-10T09:53:05;15.70;99.90
33460;DHT22;19795;53.160;6.612;2022-07-10T09:55:33;15.70;99.90
33460;DHT22;19795;53.160;6.612;2022-07-10T10:00:29;15.70;99.90
33460;DHT22;19795;53.160;6.612;2022-07-10T10:02:58;15.90;99.90
33460;DHT22;19795;53.160;6.612;2022-07-10T10:05:43;16.10;99.90
33460;DHT22;19795;53.160;6.612;2022-07-10T10:10:43;15.80;99.90
33460;DHT22;19795;53.160;6.612;2022-07-10T10:13:11;15.70;99.90
33460;DHT22;19795;53.160;6.612;2022-07-10T10:15:37;15.90;99.90
33460;DHT22;19795;53.160;6.612;2022-07-10T10:18:03;16.00;99.90
33460;DHT22;19795;53.160;6.612;2022-07-10T10:20:32;15.80;99.90
33460;DHT22;19795;53.160;6.612;2022-07-10T10:23:13;15.90;99.90
33460;DHT22;19795;53.160;6.612;2022-07-10T10:25:39;16.50;99.90
33460;DHT22;19795;53.160;6.612;2022-07-10T10:28:07;16.80;99.90
33460;DHT22;19795;53.160;6.612;2022-07-10T10:30:39;17.30;99.90
33460;DHT22;19795;53.160;6.612;2022-07-10T10:36:02;16.90;99.90
33460;DHT22;19795;53.160;6.612;2022-07-10T10:46:54;16.90;99.90
33460;DHT22;19795;53.160;6.612;2022-07-10T10:49:22;17.30;99.90
33460;DHT22;19795;53.160;6.612;2022-07-10T10:52:04;17.70;99.90
33460;DHT22;19795;53.160;6.612;2022-07-10T11:00:01;18.00;99.90
33460;DHT22;19795;53.160;6.612;2022-07-10T11:02:34;17.30;99.90
33460;DHT22;19795;53.160;6.612;2022-07-10T11:08:00;16.20;99.90
33460;DHT22;19795;53.160;6.612;2022-07-10T11:10:39;16.00;99.90
33460;DHT22;19795;53.160;6.612;2022-07-10T11:15:39;16.60;99.90
33460;DHT22;19795;53.160;6.612;2022-07-10T11:18:07;17.20;99.90
33460;DHT22;19795;53.160;6.612;2022-07-10T11:20:41;17.40;99.90
33460;DHT22;19795;53.160;6.612;2022-07-10T11:26:24;18.30;99.90
33460;DHT22;19795;53.160;6.612;2022-07-10T11:31:20;18.80;99.90
33460;DHT22;19795;53.160;6.612;2022-07-10T11:33:48;18.80;99.90
33460;DHT22;19795;53.160;6.612;2022-07-10T11:36:25;18.60;99.90
33460;DHT22;19795;53.160;6.612;2022-07-10T11:39:01;17.90;99.90
33460;DHT22;19795;53.160;6.612;2022-07-10T11:41:27;17.40;99.90
33460;DHT22;19795;53.160;6.612;2022-07-10T11:43:55;17.10;99.90
33460;DHT22;19795;53.160;6.612;2022-07-10T11:46:22;17.20;99.90
33460;DHT22;19795;53.160;6.612;2022-07-10T11:48:49;17.30;99.90
33460;DHT22;19795;53.160;6.612;2022-07-10T11:51:20;17.70;99.90
33460;DHT22;19795;53.160;6.612;2022-07-10T11:56:28;18.10;99.90
33460;DHT22;19795;53.160;6.612;2022-07-10T11:58:58;17.90;99.90
33460;DHT22;19795;53.160;6.612;2022-07-10T12:01:24;17.80;99.90
33460;DHT22;19795;53.160;6.612;2022-07-10T12:04:01;17.70;99.90
33460;DHT22;19795;53.160;6.612;2022-07-10T12:06:28;17.60;99.90
33460;DHT22;19795;53.160;6.612;2022-07-10T12:08:55;17.60;99.90
33460;DHT22;19795;53.160;6.612;2022-07-10T12:11:21;17.70;99.90
33460;DHT22;19795;53.160;6.612;2022-07-10T12:13:49;17.50;99.90
33460;DHT22;19795;53.160;6.612;2022-07-10T12:16:16;17.40;99.90
33460;DHT22;19795;53.160;6.612;2022-07-10T12:18:43;17.40;99.90
33460;DHT22;19795;53.160;6.612;2022-07-10T12:21:09;17.60;99.90
33460;DHT22;19795;53.160;6.612;2022-07-10T12:23:35;17.70;99.90
33460;DHT22;19795;53.160;6.612;2022-07-10T12:26:04;17.80;99.90
33460;DHT22;19795;53.160;6.612;2022-07-10T12:28:30;18.10;99.90
33460;DHT22;19795;53.160;6.612;2022-07-10T12:30:55;18.50;99.90
33460;DHT22;19795;53.160;6.612;2022-07-10T12:33:23;18.90;99.90
33460;DHT22;19795;53.160;6.612;2022-07-10T12:35:50;18.60;99.90
33460;DHT22;19795;53.160;6.612;2022-07-10T12:38:20;18.40;99.90
33460;DHT22;19795;53.160;6.612;2022-07-10T12:40:47;18.10;99.90
33460;DHT22;19795;53.160;6.612;2022-07-10T12:43:24;17.80;99.90
33460;DHT22;19795;53.160;6.612;2022-07-10T12:48:38;17.90;99.90
33460;DHT22;19795;53.160;6.612;2022-07-10T12:51:26;17.80;99.90
33460;DHT22;19795;53.160;6.612;2022-07-10T12:53:52;17.70;99.90
33460;DHT22;19795;53.160;6.612;2022-07-10T12:56:37;17.30;99.90
33460;DHT22;19795;53.160;6.612;2022-07-10T12:59:13;17.10;99.90
33460;DHT22;19795;53.160;6.612;2022-07-10T13:01:41;16.80;99.90
33460;DHT22;19795;53.160;6.612;2022-07-10T13:04:06;16.60;99.90
33460;DHT22;19795;53.160;6.612;2022-07-10T13:06:34;16.50;99.90
33460;DHT22;19795;53.160;6.612;2022-07-10T13:09:02;16.40;99.90
33460;DHT22;19795;53.160;6.612;2022-07-10T13:11:28;16.10;99.90
33460;DHT22;19795;53.160;6.612;2022-07-10T13:13:54;16.00;99.90
33460;DHT22;19795;53.160;6.612;2022-07-10T13:16:21;16.20;99.90
33460;DHT22;19795;53.160;6.612;2022-07-10T13:18:47;16.10;99.90
33460;DHT22;19795;53.160;6.612;2022-07-10T13:21:13;16.10;99.90
33460;DHT22;19795;53.160;6.612;2022-07-10T13:23:39;15.90;99.90
33460;DHT22;19795;53.160;6.612;2022-07-10T13:26:05;15.80;99.90
33460;DHT22;19795;53.160;6.612;2022-07-10T13:28:33;16.00;99.90
33460;DHT22;19795;53.160;6.612;2022-07-10T13:30:59;16.10;99.90
33460;DHT22;19795;53.160;6.612;2022-07-10T13:33:25;16.20;99.90
33460;DHT22;19795;53.160;6.612;2022-07-10T13:35:51;16.30;99.90
33460;DHT22;19795;53.160;6.612;2022-07-10T13:38:17;16.30;99.90
33460;DHT22;19795;53.160;6.612;2022-07-10T13:40:44;16.30;99.90
33460;DHT22;19795;53.160;6.612;2022-07-10T13:43:11;16.20;99.90
33460;DHT22;19795;53.160;6.612;2022-07-10T13:45:38;16.40;99.90
33460;DHT22;19795;53.160;6.612;2022-07-10T13:48:09;16.60;99.90
33460;DHT22;19795;53.160;6.612;2022-07-10T13:50:37;16.60;99.90
33460;DHT22;19795;53.160;6.612;2022-07-10T13:53:03;16.70;99.90
33460;DHT22;19795;53.160;6.612;2022-07-10T13:55:29;16.90;99.90
33460;DHT22;19795;53.160;6.612;2022-07-10T13:57:55;16.90;99.90
33460;DHT22;19795;53.160;6.612;2022-07-10T14:00:20;16.70;99.90
33460;DHT22;19795;53.160;6.612;2022-07-10T14:02:46;16.80;99.90
33460;DHT22;19795;53.160;6.612;2022-07-10T14:05:12;16.80;99.90
33460;DHT22;19795;53.160;6.612;2022-07-10T14:07:37;16.80;99.90
33460;DHT22;19795;53.160;6.612;2022-07-10T14:10:03;17.00;99.90
33460;DHT22;19795;53.160;6.612;2022-07-10T14:12:31;17.40;99.90
33460;DHT22;19795;53.160;6.612;2022-07-10T14:14:57;17.70;99.90
33460;DHT22;19795;53.160;6.612;2022-07-10T14:17:23;18.10;99.90
33460;DHT22;19795;53.160;6.612;2022-07-10T14:19:49;18.50;99.90
33460;DHT22;19795;53.160;6.612;2022-07-10T14:22:15;18.50;99.90
33460;DHT22;19795;53.160;6.612;2022-07-10T14:24:41;18.30;99.90
33460;DHT22;19795;53.160;6.612;2022-07-10T14:27:07;18.30;99.90
33460;DHT22;19795;53.160;6.612;2022-07-10T14:29:33;18.20;99.90
33460;DHT22;19795;53.160;6.612;2022-07-10T14:31:58;18.10;99.90
33460;DHT22;19795;53.160;6.612;2022-07-10T14:34:24;18.50;99.90
33460;DHT22;19795;53.160;6.612;2022-07-10T14:36:52;18.80;99.90
33460;DHT22;19795;53.160;6.612;2022-07-10T14:39:18;19.20;99.90
33460;DHT22;19795;53.160;6.612;2022-07-10T14:41:44;19.60;99.90
33460;DHT22;19795;53.160;6.612;2022-07-10T14:44:09;19.70;99.90
33460;DHT22;19795;53.160;6.612;2022-07-10T14:46:35;19.60;99.90
33460;DHT22;19795;53.160;6.612;2022-07-10T14:49:01;19.40;99.90
33460;DHT22;19795;53.160;6.612;2022-07-10T14:51:26;19.40;99.90
33460;DHT22;19795;53.160;6.612;2022-07-10T14:53:52;19.10;99.90
33460;DHT22;19795;53.160;6.612;2022-07-10T14:56:19;18.80;99.90
33460;DHT22;19795;53.160;6.612;2022-07-10T14:58:45;18.50;99.90
33460;DHT22;19795;53.160;6.612;2022-07-10T15:01:12;18.60;99.90
33460;DHT22;19795;53.160;6.612;2022-07-10T15:03:37;18.80;99.90
33460;DHT22;19795;53.160;6.612;2022-07-10T15:06:04;18.80;99.90
33460;DHT22;19795;53.160;6.612;2022-07-10T15:08:29;18.90;99.90
33460;DHT22;19795;53.160;6.612;2022-07-10T15:10:55;19.00;99.90
33460;DHT22;19795;53.160;6.612;2022-07-10T15:13:21;19.00;99.90
33460;DHT22;19795;53.160;6.612;2022-07-10T15:15:47;19.20;99.90
33460;DHT22;19795;53.160;6.612;2022-07-10T15:18:15;19.30;99.90
33460;DHT22;19795;53.160;6.612;2022-07-10T15:20:40;19.20;99.90
33460;DHT22;19795;53.160;6.612;2022-07-10T15:23:06;19.20;99.90
33460;DHT22;19795;53.160;6.612;2022-07-10T15:25:32;19.10;99.90
33460;DHT22;19795;53.160;6.612;2022-07-10T15:27:57;18.90;99.90
33460;DHT22;19795;53.160;6.612;2022-07-10T15:30:23;18.90;99.90
33460;DHT22;19795;53.160;6.612;2022-07-10T15:32:48;19.00;99.90
33460;DHT22;19795;53.160;6.612;2022-07-10T15:35:14;18.90;99.90
33460;DHT22;19795;53.160;6.612;2022-07-10T15:37:40;18.70;99.90
33460;DHT22;19795;53.160;6.612;2022-07-10T15:40:06;18.70;99.90
33460;DHT22;19795;53.160;6.612;2022-07-10T15:42:32;18.60;99.90
33460;DHT22;19795;53.160;6.612;2022-07-10T15:44:58;18.60;99.90
33460;DHT22;19795;53.160;6.612;2022-07-10T15:47:24;18.70;99.90
33460;DHT22;19795;53.160;6.612;2022-07-10T15:49:50;18.60;99.90
33460;DHT22;19795;53.160;6.612;2022-07-10T15:52:15;18.70;99.90
33460;DHT22;19795;53.160;6.612;2022-07-10T15:54:41;18.70;99.90
33460;DHT22;19795;53.160;6.612;2022-07-10T15:57:07;18.90;99.90
33460;DHT22;19795;53.160;6.612;2022-07-10T15:59:33;19.10;99.90
33460;DHT22;19795;53.160;6.612;2022-07-10T16:02:01;19.20;99.90
33460;DHT22;19795;53.160;6.612;2022-07-10T16:04:27;19.10;99.90
33460;DHT22;19795;53.160;6.612;2022-07-10T16:06:53;19.30;99.90
33460;DHT22;19795;53.160;6.612;2022-07-10T16:09:19;19.60;99.90
33460;DHT22;19795;53.160;6.612;2022-07-10T16:11:46;19.70;99.90
33460;DHT22;19795;53.160;6.612;2022-07-10T16:14:11;19.50;99.90
33460;DHT22;19795;53.160;6.612;2022-07-10T16:16:38;19.40;99.90
33460;DHT22;19795;53.160;6.612;2022-07-10T16:19:04;19.20;99.90
33460;DHT22;19795;53.160;6.612;2022-07-10T16:21:31;18.90;99.90
33460;DHT22;19795;53.160;6.612;2022-07-10T16:23:59;18.70;99.90
33460;DHT22;19795;53.160;6.612;2022-07-10T16:26:25;18.70;99.90
33460;DHT22;19795;53.160;6.612;2022-07-10T16:28:51;18.70;99.90
33460;DHT22;19795;53.160;6.612;2022-07-10T16:31:20;18.80;99.90
33460;DHT22;19795;53.160;6.612;2022-07-10T16:33:46;18.60;99.90
33460;DHT22;19795;53.160;6.612;2022-07-10T16:36:13;18.40;99.90
33460;DHT22;19795;53.160;6.612;2022-07-10T16:38:39;18.30;99.90
33460;DHT22;19795;53.160;6.612;2022-07-10T16:41:04;18.30;99.90
33460;DHT22;19795;53.160;6.612;2022-07-10T16:43:30;18.40;99.90
33460;DHT22;19795;53.160;6.612;2022-07-10T16:45:58;18.50;99.90
33460;DHT22;19795;53.160;6.612;2022-07-10T16:48:24;18.60;99.90
33460;DHT22;19795;53.160;6.612;2022-07-10T16:50:50;18.60;99.90
33460;DHT22;19795;53.160;6.612;2022-07-10T16:53:16;18.50;99.90
33460;DHT22;19795;53.160;6.612;2022-07-10T16:55:42;18.40;99.90
33460;DHT22;19795;53.160;6.612;2022-07-10T16:58:07;18.20;99.90
33460;DHT22;19795;53.160;6.612;2022-07-10T17:00:33;18.20;99.90
33460;DHT22;19795;53.160;6.612;2022-07-10T17:02:59;18.40;99.90
33460;DHT22;19795;53.160;6.612;2022-07-10T17:05:25;18.50;99.90
33460;DHT22;19795;53.160;6.612;2022-07-10T17:07:51;18.60;99.90
33460;DHT22;19795;53.160;6.612;2022-07-10T17:10:17;18.60;99.90
33460;DHT22;19795;53.160;6.612;2022-07-10T17:12:43;18.50;99.90
33460;DHT22;19795;53.160;6.612;2022-07-10T17:15:10;18.40;99.90
33460;DHT22;19795;53.160;6.612;2022-07-10T17:17:36;18.30;99.90
33460;DHT22;19795;53.160;6.612;2022-07-10T17:20:03;18.20;99.90
33460;DHT22;19795;53.160;6.612;2022-07-10T17:22:29;18.10;99.90
33460;DHT22;19795;53.160;6.612;2022-07-10T17:24:55;18.00;99.90
33460;DHT22;19795;53.160;6.612;2022-07-10T17:27:23;17.90;99.90
33460;DHT22;19795;53.160;6.612;2022-07-10T17:29:48;17.90;99.90
33460;DHT22;19795;53.160;6.612;2022-07-10T17:32:17;17.90;99.90
33460;DHT22;19795;53.160;6.612;2022-07-10T17:34:43;17.90;99.90
33460;DHT22;19795;53.160;6.612;2022-07-10T17:37:09;17.90;99.90
33460;DHT22;19795;53.160;6.612;2022-07-10T17:39:35;17.90;99.90
33460;DHT22;19795;53.160;6.612;2022-07-10T17:42:01;17.90;99.90
33460;DHT22;19795;53.160;6.612;2022-07-10T17:44:27;17.90;99.90
33460;DHT22;19795;53.160;6.612;2022-07-10T17:46:53;17.90;99.90
33460;DHT22;19795;53.160;6.612;2022-07-10T17:49:19;17.90;99.90
33460;DHT22;19795;53.160;6.612;2022-07-10T17:51:45;18.00;99.90
33460;DHT22;19795;53.160;6.612;2022-07-10T17:54:11;18.20;99.90
33460;DHT22;19795;53.160;6.612;2022-07-10T17:56:37;18.30;99.90
33460;DHT22;19795;53.160;6.612;2022-07-10T17:59:03;18.40;99.90
33460;DHT22;19795;53.160;6.612;2022-07-10T18:01:30;18.50;99.90
33460;DHT22;19795;53.160;6.612;2022-07-10T18:03:56;18.50;99.90
33460;DHT22;19795;53.160;6.612;2022-07-10T18:06:21;18.40;99.90
33460;DHT22;19795;53.160;6.612;2022-07-10T18:08:47;18.30;99.90
33460;DHT22;19795;53.160;6.612;2022-07-10T18:11:17;18.20;99.90
33460;DHT22;19795;53.160;6.612;2022-07-10T18:13:45;18.10;99.90
33460;DHT22;19795;53.160;6.612;2022-07-10T18:16:10;18.00;99.90
33460;DHT22;19795;53.160;6.612;2022-07-10T18:18:56;18.00;99.90
33460;DHT22;19795;53.160;6.612;2022-07-10T18:21:23;17.90;99.90
33460;DHT22;19795;53.160;6.612;2022-07-10T18:23:50;17.90;99.90
33460;DHT22;19795;53.160;6.612;2022-07-10T18:26:16;17.90;99.90
33460;DHT22;19795;53.160;6.612;2022-07-10T18:28:42;17.80;99.90
33460;DHT22;19795;53.160;6.612;2022-07-10T18:31:09;17.80;99.90
33460;DHT22;19795;53.160;6.612;2022-07-10T18:33:35;17.80;99.90
33460;DHT22;19795;53.160;6.612;2022-07-10T18:36:20;17.80;99.90
33460;DHT22;19795;53.160;6.612;2022-07-10T18:38:45;17.80;99.90
33460;DHT22;19795;53.160;6.612;2022-07-10T18:41:12;17.80;99.90
33460;DHT22;19795;53.160;6.612;2022-07-10T18:43:38;17.80;99.90
33460;DHT22;19795;53.160;6.612;2022-07-10T18:46:05;17.80;99.90
33460;DHT22;19795;53.160;6.612;2022-07-10T18:48:32;17.80;99.90
33460;DHT22;19795;53.160;6.612;2022-07-10T18:50:57;17.70;99.90
33460;DHT22;19795;53.160;6.612;2022-07-10T18:53:24;17.60;99.90
33460;DHT22;19795;53.160;6.612;2022-07-10T18:55:50;17.50;99.90
33460;DHT22;19795;53.160;6.612;2022-07-10T18:58:16;17.50;99.90
33460;DHT22;19795;53.160;6.612;2022-07-10T19:00:42;17.50;99.90
33460;DHT22;19795;53.160;6.612;2022-07-10T19:03:08;17.40;99.90
33460;DHT22;19795;53.160;6.612;2022-07-10T19:05:34;17.30;99.90
33460;DHT22;19795;53.160;6.612;2022-07-10T19:08:01;17.30;99.90
33460;DHT22;19795;53.160;6.612;2022-07-10T19:10:27;17.30;99.90
33460;DHT22;19795;53.160;6.612;2022-07-10T19:12:55;17.20;99.90
33460;DHT22;19795;53.160;6.612;2022-07-10T19:15:20;17.20;99.90
33460;DHT22;19795;53.160;6.612;2022-07-10T19:17:47;17.10;99.90
33460;DHT22;19795;53.160;6.612;2022-07-10T19:20:13;17.00;99.90
33460;DHT22;19795;53.160;6.612;2022-07-10T19:22:44;17.00;99.90
33460;DHT22;19795;53.160;6.612;2022-07-10T19:25:11;17.00;99.90
33460;DHT22;19795;53.160;6.612;2022-07-10T19:27:36;16.90;99.90
33460;DHT22;19795;53.160;6.612;2022-07-10T19:30:03;16.90;99.90
33460;DHT22;19795;53.160;6.612;2022-07-10T19:32:29;16.90;99.90
33460;DHT22;19795;53.160;6.612;2022-07-10T19:34:55;16.80;99.90
33460;DHT22;19795;53.160;6.612;2022-07-10T19:37:21;16.80;99.90
33460;DHT22;19795;53.160;6.612;2022-07-10T19:39:47;16.80;99.90
33460;DHT22;19795;53.160;6.612;2022-07-10T19:42:13;16.80;99.90
33460;DHT22;19795;53.160;6.612;2022-07-10T19:44:39;16.80;99.90
33460;DHT22;19795;53.160;6.612;2022-07-10T19:47:09;16.70;99.90
33460;DHT22;19795;53.160;6.612;2022-07-10T19:49:35;16.70;99.90
33460;DHT22;19795;53.160;6.612;2022-07-10T19:52:00;16.70;99.90
33460;DHT22;19795;53.160;6.612;2022-07-10T19:54:26;16.70;99.90
33460;DHT22;19795;53.160;6.612;2022-07-10T19:56:52;16.70;99.90
33460;DHT22;19795;53.160;6.612;2022-07-10T19:59:18;16.70;99.90
33460;DHT22;19795;53.160;6.612;2022-07-10T20:01:44;16.70;99.90
33460;DHT22;19795;53.160;6.612;2022-07-10T20:04:10;16.70;99.90
33460;DHT22;19795;53.160;6.612;2022-07-10T20:06:37;16.70;99.90
33460;DHT22;19795;53.160;6.612;2022-07-10T20:09:03;16.70;99.90